sensor_id;sensor_type;location;lat;lon;timestamp;pressure;altitude;pressure_sealevel;temperature;humidity
29907;BME280;16776;50.958;10.994;2024-02-23T00:01:06;95705.31;;;9.36;97.00
29907;BME280;16776;50.958;10.994;2024-02-23T00:03:33;95738.22;;;9.31;96.89
29907;BME280;16776;50.958;10.994;2024-02-23T00:06:00;95745.91;;;9.31;97.04
29907;BME280;16776;50.958;10.994;2024-02-23T00:08:26;95734.00;;;9.30;96.61
29907;BME280;16776;50.958;10.994;2024-02-23T00:10:54;95746.09;;;9.28;96.77
29907;BME280;16776;50.958;10.994;2024-02-23T00:13:21;95766.13;;;9.23;97.49
29907;BME280;16776;50.958;10.994;2024-02-23T00:15:47;95771.50;;;9.20;97.81
29907;BME280;16776;50.958;10.994;2024-02-23T00:18:14;95763.97;;;9.17;97.33
29907;BME280;16776;50.958;10.994;2024-02-23T00:20:42;95767.69;;;9.13;97.46
29907;BME280;16776;50.958;10.994;2024-02-23T00:23:09;95766.88;;;9.12;97.31
29907;BME280;16776;50.958;10.994;2024-02-23T00:25:35;95768.78;;;9.09;97.03
29907;BME280;16776;50.958;10.994;2024-02-23T00:28:04;95778.97;;;9.10;97.17
29907;BME280;16776;50.958;10.994;2024-02-23T00:30:30;95775.06;;;9.04;96.86
29907;BME280;16776;50.958;10.994;2024-02-23T00:32:57;95790.69;;;9.01;96.48
29907;BME280;16776;50.958;10.994;2024-02-23T00:35:23;95796.19;;;8.95;95.55
29907;BME280;16776;50.958;10.994;2024-02-23T00:37:50;95812.53;;;8.94;95.21
29907;BME280;16776;50.958;10.994;2024-02-23T00:40:17;95807.91;;;8.87;95.40
29907;BME280;16776;50.958;10.994;2024-02-23T00:42:43;95831.28;;;8.82;95.70
29907;BME280;16776;50.958;10.994;2024-02-23T00:45:11;95838.34;;;8.79;95.57
29907;BME280;16776;50.958;10.994;2024-02-23T00:47:38;95843.78;;;8.74;95.04
29907;BME280;16776;50.958;10.994;2024-02-23T00:50:05;95855.25;;;8.69;94.51
29907;BME280;16776;50.958;10.994;2024-02-23T00:52:32;95885.63;;;8.62;94.53
29907;BME280;16776;50.958;10.994;2024-02-23T00:54:59;95893.56;;;8.57;94.07
29907;BME280;16776;50.958;10.994;2024-02-23T00:57:25;95912.72;;;8.52;94.04
29907;BME280;16776;50.958;10.994;2024-02-23T00:59:55;95907.16;;;8.45;95.33
29907;BME280;16776;50.958;10.994;2024-02-23T01:02:23;95914.97;;;8.44;95.39
29907;BME280;16776;50.958;10.994;2024-02-23T01:04:49;95896.66;;;8.36;95.93
29907;BME280;16776;50.958;10.994;2024-02-23T01:07:16;95902.97;;;8.30;95.94
29907;BME280;16776;50.958;10.994;2024-02-23T01:09:42;95927.25;;;8.24;95.92
29907;BME280;16776;50.958;10.994;2024-02-23T01:12:09;95929.38;;;8.18;97.23
29907;BME280;16776;50.958;10.994;2024-02-23T01:14:35;95944.25;;;8.11;96.75
29907;BME280;16776;50.958;10.994;2024-02-23T01:17:02;95942.06;;;8.05;96.79
29907;BME280;16776;50.958;10.994;2024-02-23T01:19:30;95942.44;;;7.99;97.24
29907;BME280;16776;50.958;10.994;2024-02-23T01:21:57;95946.50;;;7.88;97.50
29907;BME280;16776;50.958;10.994;2024-02-23T01:24:25;95971.94;;;7.76;97.56
29907;BME280;16776;50.958;10.994;2024-02-23T01:26:53;95978.41;;;7.68;97.24
29907;BME280;16776;50.958;10.994;2024-02-23T01:29:20;95990.91;;;7.58;97.38
29907;BME280;16776;50.958;10.994;2024-02-23T01:31:47;95972.53;;;7.52;97.91
29907;BME280;16776;50.958;10.994;2024-02-23T01:34:14;95981.44;;;7.44;97.66
29907;BME280;16776;50.958;10.994;2024-02-23T01:36:42;95973.03;;;7.42;98.12
29907;BME280;16776;50.958;10.994;2024-02-23T01:39:08;95978.50;;;7.36;96.88
29907;BME280;16776;50.958;10.994;2024-02-23T01:41:36;95984.63;;;7.34;96.16
29907;BME280;16776;50.958;10.994;2024-02-23T01:44:03;96000.06;;;7.32;96.81
29907;BME280;16776;50.958;10.994;2024-02-23T01:46:30;95997.66;;;7.29;96.29
29907;BME280;16776;50.958;10.994;2024-02-23T01:48:57;95999.56;;;7.26;96.40
29907;BME280;16776;50.958;10.994;2024-02-23T01:51:24;96012.38;;;7.26;94.92
29907;BME280;16776;50.958;10.994;2024-02-23T01:53:52;96020.88;;;7.26;95.02
29907;BME280;16776;50.958;10.994;2024-02-23T01:56:19;96037.34;;;7.22;94.46
29907;BME280;16776;50.958;10.994;2024-02-23T01:58:47;96030.63;;;7.20;95.16
29907;BME280;16776;50.958;10.994;2024-02-23T02:01:14;96030.72;;;7.18;94.48
29907;BME280;16776;50.958;10.994;2024-02-23T02:03:41;96046.06;;;7.18;94.02
29907;BME280;16776;50.958;10.994;2024-02-23T02:06:09;96038.56;;;7.15;94.18
29907;BME280;16776;50.958;10.994;2024-02-23T02:08:35;96049.78;;;7.13;93.95
29907;BME280;16776;50.958;10.994;2024-02-23T02:11:04;96060.09;;;7.11;94.01
29907;BME280;16776;50.958;10.994;2024-02-23T02:13:30;96050.88;;;7.09;94.04
29907;BME280;16776;50.958;10.994;2024-02-23T02:15:58;96072.31;;;7.06;93.97
29907;BME280;16776;50.958;10.994;2024-02-23T02:18:27;96072.50;;;7.03;94.50
29907;BME280;16776;50.958;10.994;2024-02-23T02:20:55;96086.19;;;7.02;93.09
29907;BME280;16776;50.958;10.994;2024-02-23T02:23:22;96084.53;;;7.01;94.14
29907;BME280;16776;50.958;10.994;2024-02-23T02:25:52;96099.81;;;7.02;93.57
29907;BME280;16776;50.958;10.994;2024-02-23T02:28:20;96098.41;;;6.97;94.33
29907;BME280;16776;50.958;10.994;2024-02-23T02:30:48;96091.13;;;6.89;93.39
29907;BME280;16776;50.958;10.994;2024-02-23T02:33:14;96110.69;;;6.90;94.10
29907;BME280;16776;50.958;10.994;2024-02-23T02:35:41;96114.16;;;6.89;94.15
29907;BME280;16776;50.958;10.994;2024-02-23T02:38:08;96121.91;;;6.88;93.07
29907;BME280;16776;50.958;10.994;2024-02-23T02:40:35;96128.81;;;6.86;93.74
29907;BME280;16776;50.958;10.994;2024-02-23T02:43:01;96135.78;;;6.84;93.07
29907;BME280;16776;50.958;10.994;2024-02-23T02:45:29;96137.66;;;6.80;92.46
29907;BME280;16776;50.958;10.994;2024-02-23T02:47:56;96132.84;;;6.74;93.38
29907;BME280;16776;50.958;10.994;2024-02-23T02:50:23;96135.63;;;6.70;93.25
29907;BME280;16776;50.958;10.994;2024-02-23T02:52:50;96135.03;;;6.64;93.06
29907;BME280;16776;50.958;10.994;2024-02-23T02:55:16;96126.84;;;6.58;92.87
29907;BME280;16776;50.958;10.994;2024-02-23T02:57:43;96128.72;;;6.54;93.45
29907;BME280;16776;50.958;10.994;2024-02-23T03:00:11;96140.00;;;6.50;93.00
29907;BME280;16776;50.958;10.994;2024-02-23T03:02:39;96138.47;;;6.46;93.57
29907;BME280;16776;50.958;10.994;2024-02-23T03:05:06;96153.31;;;6.40;93.32
29907;BME280;16776;50.958;10.994;2024-02-23T03:07:33;96157.00;;;6.34;93.72
29907;BME280;16776;50.958;10.994;2024-02-23T03:09:59;96153.84;;;6.29;93.90
29907;BME280;16776;50.958;10.994;2024-02-23T03:12:26;96159.91;;;6.26;93.68
29907;BME280;16776;50.958;10.994;2024-02-23T03:14:52;96160.16;;;6.22;93.32
29907;BME280;16776;50.958;10.994;2024-02-23T03:17:21;96165.50;;;6.17;93.20
29907;BME280;16776;50.958;10.994;2024-02-23T03:19:49;96163.06;;;6.14;93.18
29907;BME280;16776;50.958;10.994;2024-02-23T03:22:16;96171.78;;;6.10;93.50
29907;BME280;16776;50.958;10.994;2024-02-23T03:24:42;96161.75;;;6.07;93.02
29907;BME280;16776;50.958;10.994;2024-02-23T03:27:09;96172.09;;;6.04;93.40
29907;BME280;16776;50.958;10.994;2024-02-23T03:29:37;96167.03;;;6.03;92.97
29907;BME280;16776;50.958;10.994;2024-02-23T03:32:05;96169.81;;;5.98;92.85
29907;BME280;16776;50.958;10.994;2024-02-23T03:34:32;96170.72;;;5.97;93.41
29907;BME280;16776;50.958;10.994;2024-02-23T03:37:00;96187.72;;;5.98;93.25
29907;BME280;16776;50.958;10.994;2024-02-23T03:39:27;96195.59;;;5.94;93.40
29907;BME280;16776;50.958;10.994;2024-02-23T03:41:54;96194.84;;;5.92;92.75
29907;BME280;16776;50.958;10.994;2024-02-23T03:44:21;96205.13;;;5.90;92.87
29907;BME280;16776;50.958;10.994;2024-02-23T03:46:47;96208.78;;;5.84;92.83
29907;BME280;16776;50.958;10.994;2024-02-23T03:49:14;96218.41;;;5.79;92.84
29907;BME280;16776;50.958;10.994;2024-02-23T03:51:41;96210.94;;;5.75;93.62
29907;BME280;16776;50.958;10.994;2024-02-23T03:54:08;96228.88;;;5.73;93.65
29907;BME280;16776;50.958;10.994;2024-02-23T03:56:38;96241.78;;;5.70;93.37
29907;BME280;16776;50.958;10.994;2024-02-23T03:59:06;96228.63;;;5.61;93.45
29907;BME280;16776;50.958;10.994;2024-02-23T04:01:35;96237.38;;;5.55;93.15
29907;BME280;16776;50.958;10.994;2024-02-23T04:04:01;96225.03;;;5.46;93.24
29907;BME280;16776;50.958;10.994;2024-02-23T04:06:28;96248.00;;;5.46;93.76
29907;BME280;16776;50.958;10.994;2024-02-23T04:08:54;96261.03;;;5.40;93.61
29907;BME280;16776;50.958;10.994;2024-02-23T04:11:22;96273.84;;;5.38;93.91
29907;BME280;16776;50.958;10.994;2024-02-23T04:13:49;96277.50;;;5.33;93.88
29907;BME280;16776;50.958;10.994;2024-02-23T04:16:15;96275.94;;;5.30;93.72
29907;BME280;16776;50.958;10.994;2024-02-23T04:18:42;96269.28;;;5.26;93.90
29907;BME280;16776;50.958;10.994;2024-02-23T04:21:08;96293.22;;;5.24;93.73
29907;BME280;16776;50.958;10.994;2024-02-23T04:23:35;96286.63;;;5.18;93.77
29907;BME280;16776;50.958;10.994;2024-02-23T04:26:02;96299.38;;;5.18;93.59
29907;BME280;16776;50.958;10.994;2024-02-23T04:28:30;96306.25;;;5.18;93.87
29907;BME280;16776;50.958;10.994;2024-02-23T04:30:58;96308.09;;;5.13;94.17
29907;BME280;16776;50.958;10.994;2024-02-23T04:33:25;96310.75;;;5.11;94.13
29907;BME280;16776;50.958;10.994;2024-02-23T04:35:52;96309.13;;;5.09;94.24
29907;BME280;16776;50.958;10.994;2024-02-23T04:38:19;96307.47;;;5.07;94.53
29907;BME280;16776;50.958;10.994;2024-02-23T04:40:45;96308.50;;;5.03;93.83
29907;BME280;16776;50.958;10.994;2024-02-23T04:43:12;96312.81;;;5.01;94.04
29907;BME280;16776;50.958;10.994;2024-02-23T04:45:40;96310.28;;;5.01;94.21
29907;BME280;16776;50.958;10.994;2024-02-23T04:48:07;96328.28;;;4.98;94.32
29907;BME280;16776;50.958;10.994;2024-02-23T04:50:33;96325.84;;;4.95;94.09
29907;BME280;16776;50.958;10.994;2024-02-23T04:53:00;96334.38;;;4.94;94.39
29907;BME280;16776;50.958;10.994;2024-02-23T04:55:27;96336.16;;;4.92;94.43
29907;BME280;16776;50.958;10.994;2024-02-23T04:57:53;96338.69;;;4.92;94.72
29907;BME280;16776;50.958;10.994;2024-02-23T05:00:21;96341.25;;;4.92;94.38
29907;BME280;16776;50.958;10.994;2024-02-23T05:02:49;96348.91;;;4.92;94.36
29907;BME280;16776;50.958;10.994;2024-02-23T05:05:15;96349.09;;;4.88;94.52
29907;BME280;16776;50.958;10.994;2024-02-23T05:07:42;96355.97;;;4.86;94.42
29907;BME280;16776;50.958;10.994;2024-02-23T05:10:09;96358.59;;;4.84;94.36
29907;BME280;16776;50.958;10.994;2024-02-23T05:12:36;96364.66;;;4.82;93.78
29907;BME280;16776;50.958;10.994;2024-02-23T05:15:03;96375.81;;;4.79;94.29
29907;BME280;16776;50.958;10.994;2024-02-23T05:17:30;96368.28;;;4.76;93.98
29907;BME280;16776;50.958;10.994;2024-02-23T05:19:58;96381.78;;;4.78;94.01
29907;BME280;16776;50.958;10.994;2024-02-23T05:22:24;96389.44;;;4.78;94.16
29907;BME280;16776;50.958;10.994;2024-02-23T05:24:51;96386.13;;;4.76;94.08
29907;BME280;16776;50.958;10.994;2024-02-23T05:27:17;96389.69;;;4.72;94.11
29907;BME280;16776;50.958;10.994;2024-02-23T05:29:44;96382.94;;;4.71;93.85
29907;BME280;16776;50.958;10.994;2024-02-23T05:32:10;96374.56;;;4.68;93.77
29907;BME280;16776;50.958;10.994;2024-02-23T05:34:37;96377.97;;;4.66;94.92
29907;BME280;16776;50.958;10.994;2024-02-23T05:37:05;96388.03;;;4.71;94.75
29907;BME280;16776;50.958;10.994;2024-02-23T05:39:32;96387.97;;;4.73;95.69
29907;BME280;16776;50.958;10.994;2024-02-23T05:41:58;96402.06;;;4.81;95.16
29907;BME280;16776;50.958;10.994;2024-02-23T05:44:25;96401.75;;;4.89;94.34
29907;BME280;16776;50.958;10.994;2024-02-23T05:46:51;96400.00;;;4.91;94.00
29907;BME280;16776;50.958;10.994;2024-02-23T05:49:18;96395.72;;;4.91;93.75
29907;BME280;16776;50.958;10.994;2024-02-23T05:51:44;96410.25;;;4.89;93.98
29907;BME280;16776;50.958;10.994;2024-02-23T05:54:12;96406.03;;;4.88;93.19
29907;BME280;16776;50.958;10.994;2024-02-23T05:56:39;96408.03;;;4.80;93.18
29907;BME280;16776;50.958;10.994;2024-02-23T05:59:05;96410.84;;;4.74;93.11
29907;BME280;16776;50.958;10.994;2024-02-23T06:01:32;96409.34;;;4.69;93.37
29907;BME280;16776;50.958;10.994;2024-02-23T06:03:59;96397.63;;;4.64;92.72
29907;BME280;16776;50.958;10.994;2024-02-23T06:06:25;96408.91;;;4.59;92.66
29907;BME280;16776;50.958;10.994;2024-02-23T06:08:52;96421.88;;;4.53;93.09
29907;BME280;16776;50.958;10.994;2024-02-23T06:11:20;96421.09;;;4.51;93.03
29907;BME280;16776;50.958;10.994;2024-02-23T06:13:47;96417.91;;;4.46;93.22
29907;BME280;16776;50.958;10.994;2024-02-23T06:16:13;96417.16;;;4.42;93.09
29907;BME280;16776;50.958;10.994;2024-02-23T06:18:41;96408.81;;;4.39;92.78
29907;BME280;16776;50.958;10.994;2024-02-23T06:21:13;96407.16;;;4.38;92.17
29907;BME280;16776;50.958;10.994;2024-02-23T06:23:40;96420.72;;;4.38;93.05
29907;BME280;16776;50.958;10.994;2024-02-23T06:26:06;96419.50;;;4.25;92.69
29907;BME280;16776;50.958;10.994;2024-02-23T06:28:34;96422.00;;;4.27;92.46
29907;BME280;16776;50.958;10.994;2024-02-23T06:31:02;96415.25;;;4.25;93.03
29907;BME280;16776;50.958;10.994;2024-02-23T06:33:30;96427.22;;;4.23;92.56
29907;BME280;16776;50.958;10.994;2024-02-23T06:35:56;96431.56;;;4.21;92.32
29907;BME280;16776;50.958;10.994;2024-02-23T06:38:23;96431.59;;;4.20;92.85
29907;BME280;16776;50.958;10.994;2024-02-23T06:40:50;96454.56;;;4.18;92.67
29907;BME280;16776;50.958;10.994;2024-02-23T06:43:16;96465.63;;;4.17;92.45
29907;BME280;16776;50.958;10.994;2024-02-23T06:45:44;96462.16;;;4.20;92.17
29907;BME280;16776;50.958;10.994;2024-02-23T06:48:11;96467.34;;;4.17;92.47
29907;BME280;16776;50.958;10.994;2024-02-23T06:50:37;96470.78;;;4.16;92.78
29907;BME280;16776;50.958;10.994;2024-02-23T06:53:04;96486.06;;;4.16;92.97
29907;BME280;16776;50.958;10.994;2024-02-23T06:55:32;96490.31;;;4.15;92.36
29907;BME280;16776;50.958;10.994;2024-02-23T06:57:59;96486.91;;;4.16;92.30
29907;BME280;16776;50.958;10.994;2024-02-23T07:00:26;96494.53;;;4.16;92.14
29907;BME280;16776;50.958;10.994;2024-02-23T07:02:54;96497.03;;;4.18;92.71
29907;BME280;16776;50.958;10.994;2024-02-23T07:05:20;96497.91;;;4.17;91.88
29907;BME280;16776;50.958;10.994;2024-02-23T07:07:47;96500.47;;;4.17;92.56
29907;BME280;16776;50.958;10.994;2024-02-23T07:10:13;96505.53;;;4.18;92.29
29907;BME280;16776;50.958;10.994;2024-02-23T07:12:40;96502.09;;;4.19;92.84
29907;BME280;16776;50.958;10.994;2024-02-23T07:15:08;96512.22;;;4.21;92.17
29907;BME280;16776;50.958;10.994;2024-02-23T07:17:35;96510.53;;;4.21;92.19
29907;BME280;16776;50.958;10.994;2024-02-23T07:20:04;96512.06;;;4.25;93.04
29907;BME280;16776;50.958;10.994;2024-02-23T07:22:31;96509.56;;;4.24;92.75
29907;BME280;16776;50.958;10.994;2024-02-23T07:24:57;96518.03;;;4.24;92.63
29907;BME280;16776;50.958;10.994;2024-02-23T07:27:24;96524.81;;;4.25;92.81
29907;BME280;16776;50.958;10.994;2024-02-23T07:29:51;96517.13;;;4.27;92.23
29907;BME280;16776;50.958;10.994;2024-02-23T07:32:18;96520.50;;;4.28;91.94
29907;BME280;16776;50.958;10.994;2024-02-23T07:34:44;96508.63;;;4.27;92.12
29907;BME280;16776;50.958;10.994;2024-02-23T07:37:13;96513.59;;;4.30;92.73
29907;BME280;16776;50.958;10.994;2024-02-23T07:39:39;96509.38;;;4.29;92.52
29907;BME280;16776;50.958;10.994;2024-02-23T07:42:06;96488.69;;;4.14;92.29
29907;BME280;16776;50.958;10.994;2024-02-23T07:44:35;96524.63;;;4.30;92.78
29907;BME280;16776;50.958;10.994;2024-02-23T07:47:03;96523.69;;;4.33;92.37
29907;BME280;16776;50.958;10.994;2024-02-23T07:49:29;96524.53;;;4.33;91.33
29907;BME280;16776;50.958;10.994;2024-02-23T07:51:56;96515.22;;;4.32;91.32
29907;BME280;16776;50.958;10.994;2024-02-23T07:54:24;96521.91;;;4.35;91.42
29907;BME280;16776;50.958;10.994;2024-02-23T07:56:51;96508.38;;;4.34;91.91
29907;BME280;16776;50.958;10.994;2024-02-23T07:59:17;96512.50;;;4.37;91.88
29907;BME280;16776;50.958;10.994;2024-02-23T08:01:44;96503.97;;;4.38;91.80
29907;BME280;16776;50.958;10.994;2024-02-23T08:04:10;96509.03;;;4.39;92.45
29907;BME280;16776;50.958;10.994;2024-02-23T08:06:38;96505.53;;;4.42;91.98
29907;BME280;16776;50.958;10.994;2024-02-23T08:09:05;96498.66;;;4.44;91.84
29907;BME280;16776;50.958;10.994;2024-02-23T08:11:34;96502.81;;;4.46;92.19
29907;BME280;16776;50.958;10.994;2024-02-23T08:14:00;96493.47;;;4.47;92.52
29907;BME280;16776;50.958;10.994;2024-02-23T08:16:28;96488.19;;;4.51;92.30
29907;BME280;16776;50.958;10.994;2024-02-23T08:18:54;96500.88;;;4.53;91.88
29907;BME280;16776;50.958;10.994;2024-02-23T08:21:21;96510.97;;;4.56;92.21
29907;BME280;16776;50.958;10.994;2024-02-23T08:23:48;96499.88;;;4.57;91.81
29907;BME280;16776;50.958;10.994;2024-02-23T08:26:14;96515.97;;;4.59;91.96
29907;BME280;16776;50.958;10.994;2024-02-23T08:28:42;96502.19;;;4.63;92.28
29907;BME280;16776;50.958;10.994;2024-02-23T08:31:09;96502.19;;;4.63;92.67
29907;BME280;16776;50.958;10.994;2024-02-23T08:33:35;96494.72;;;4.58;92.25
29907;BME280;16776;50.958;10.994;2024-02-23T08:36:02;96514.75;;;4.68;92.72
29907;BME280;16776;50.958;10.994;2024-02-23T08:38:30;96526.53;;;4.72;92.09
29907;BME280;16776;50.958;10.994;2024-02-23T08:40:57;96535.84;;;4.73;93.04
29907;BME280;16776;50.958;10.994;2024-02-23T08:43:24;96546.75;;;4.76;92.85
29907;BME280;16776;50.958;10.994;2024-02-23T08:45:52;96542.31;;;4.81;92.68
29907;BME280;16776;50.958;10.994;2024-02-23T08:48:18;96538.88;;;4.82;92.22
29907;BME280;16776;50.958;10.994;2024-02-23T08:50:45;96536.28;;;4.84;91.96
29907;BME280;16776;50.958;10.994;2024-02-23T08:53:11;96535.31;;;4.86;91.81
29907;BME280;16776;50.958;10.994;2024-02-23T08:55:38;96543.75;;;4.88;91.85
29907;BME280;16776;50.958;10.994;2024-02-23T08:58:04;96531.78;;;4.90;91.98
29907;BME280;16776;50.958;10.994;2024-02-23T09:00:32;96544.47;;;4.92;91.78
29907;BME280;16776;50.958;10.994;2024-02-23T09:03:00;96557.94;;;4.95;91.85
29907;BME280;16776;50.958;10.994;2024-02-23T09:05:26;96559.56;;;4.98;92.47
29907;BME280;16776;50.958;10.994;2024-02-23T09:07:54;96558.53;;;5.02;92.09
29907;BME280;16776;50.958;10.994;2024-02-23T09:10:20;96572.84;;;5.06;92.09
29907;BME280;16776;50.958;10.994;2024-02-23T09:12:47;96570.97;;;5.11;91.92
29907;BME280;16776;50.958;10.994;2024-02-23T09:15:14;96585.25;;;5.15;92.24
29907;BME280;16776;50.958;10.994;2024-02-23T09:17:40;96581.72;;;5.19;91.99
29907;BME280;16776;50.958;10.994;2024-02-23T09:20:10;96578.00;;;5.28;91.56
29907;BME280;16776;50.958;10.994;2024-02-23T09:22:37;96572.84;;;5.29;91.21
29907;BME280;16776;50.958;10.994;2024-02-23T09:25:05;96580.38;;;5.32;91.39
29907;BME280;16776;50.958;10.994;2024-02-23T09:27:33;96572.59;;;5.35;90.96
29907;BME280;16776;50.958;10.994;2024-02-23T09:30:02;96583.50;;;5.39;90.88
29907;BME280;16776;50.958;10.994;2024-02-23T09:32:29;96590.19;;;5.43;90.92
29907;BME280;16776;50.958;10.994;2024-02-23T09:34:56;96586.66;;;5.45;90.82
29907;BME280;16776;50.958;10.994;2024-02-23T09:37:23;96589.03;;;5.50;91.01
29907;BME280;16776;50.958;10.994;2024-02-23T09:39:50;96597.59;;;5.49;90.58
29907;BME280;16776;50.958;10.994;2024-02-23T09:42:17;96612.72;;;5.54;90.75
29907;BME280;16776;50.958;10.994;2024-02-23T09:44:45;96602.47;;;5.55;90.49
29907;BME280;16776;50.958;10.994;2024-02-23T09:47:13;96604.09;;;5.56;90.43
29907;BME280;16776;50.958;10.994;2024-02-23T09:49:41;96601.09;;;5.47;90.29
29907;BME280;16776;50.958;10.994;2024-02-23T09:52:08;96610.88;;;5.57;90.38
29907;BME280;16776;50.958;10.994;2024-02-23T09:54:37;96602.34;;;5.58;90.48
29907;BME280;16776;50.958;10.994;2024-02-23T09:57:06;96590.63;;;5.53;91.05
29907;BME280;16776;50.958;10.994;2024-02-23T09:59:34;96620.09;;;5.61;90.71
29907;BME280;16776;50.958;10.994;2024-02-23T10:02:01;96608.16;;;5.62;90.40
29907;BME280;16776;50.958;10.994;2024-02-23T10:04:29;96610.59;;;5.65;89.88
29907;BME280;16776;50.958;10.994;2024-02-23T10:06:56;96610.59;;;5.65;90.19
29907;BME280;16776;50.958;10.994;2024-02-23T10:09:23;96591.19;;;5.61;90.11
29907;BME280;16776;50.958;10.994;2024-02-23T10:11:53;96598.28;;;5.74;91.05
29907;BME280;16776;50.958;10.994;2024-02-23T10:14:20;96599.94;;;5.75;90.03
29907;BME280;16776;50.958;10.994;2024-02-23T10:16:46;96620.94;;;5.82;90.05
29907;BME280;16776;50.958;10.994;2024-02-23T10:19:13;96611.47;;;5.85;89.87
29907;BME280;16776;50.958;10.994;2024-02-23T10:21:40;96611.31;;;5.89;90.22
29907;BME280;16776;50.958;10.994;2024-02-23T10:24:07;96611.84;;;5.97;91.01
29907;BME280;16776;50.958;10.994;2024-02-23T10:26:33;96615.72;;;6.07;90.76
29907;BME280;16776;50.958;10.994;2024-02-23T10:29:01;96614.69;;;6.11;90.61
29907;BME280;16776;50.958;10.994;2024-02-23T10:31:30;96625.28;;;6.22;90.62
29907;BME280;16776;50.958;10.994;2024-02-23T10:34:05;96619.81;;;6.31;90.44
29907;BME280;16776;50.958;10.994;2024-02-23T10:36:36;96622.94;;;6.38;90.81
29907;BME280;16776;50.958;10.994;2024-02-23T10:39:03;96618.31;;;6.46;90.57
29907;BME280;16776;50.958;10.994;2024-02-23T10:41:34;96619.72;;;6.53;90.19
29907;BME280;16776;50.958;10.994;2024-02-23T10:44:03;96606.81;;;6.56;90.30
29907;BME280;16776;50.958;10.994;2024-02-23T10:46:31;96608.44;;;6.58;89.71
29907;BME280;16776;50.958;10.994;2024-02-23T10:48:58;96613.91;;;6.70;89.97
29907;BME280;16776;50.958;10.994;2024-02-23T10:51:25;96611.09;;;6.76;89.28
29907;BME280;16776;50.958;10.994;2024-02-23T10:53:52;96621.19;;;6.79;88.90
29907;BME280;16776;50.958;10.994;2024-02-23T10:56:19;96613.47;;;6.80;88.31
29907;BME280;16776;50.958;10.994;2024-02-23T10:58:47;96614.22;;;6.82;87.58
29907;BME280;16776;50.958;10.994;2024-02-23T11:01:15;96616.72;;;6.84;87.54
29907;BME280;16776;50.958;10.994;2024-02-23T11:03:44;96616.84;;;6.81;88.83
29907;BME280;16776;50.958;10.994;2024-02-23T11:06:13;96611.66;;;6.82;88.78
29907;BME280;16776;50.958;10.994;2024-02-23T11:08:42;96610.78;;;6.83;88.82
29907;BME280;16776;50.958;10.994;2024-02-23T11:11:09;96626.59;;;6.91;89.30
29907;BME280;16776;50.958;10.994;2024-02-23T11:13:37;96619.47;;;6.98;88.38
29907;BME280;16776;50.958;10.994;2024-02-23T11:16:05;96607.75;;;6.94;89.10
29907;BME280;16776;50.958;10.994;2024-02-23T11:18:34;96616.25;;;7.13;88.40
29907;BME280;16776;50.958;10.994;2024-02-23T11:21:02;96621.31;;;7.15;89.13
29907;BME280;16776;50.958;10.994;2024-02-23T11:23:40;96630.94;;;7.28;88.57
29907;BME280;16776;50.958;10.994;2024-02-23T11:26:06;96627.66;;;7.25;88.57
29907;BME280;16776;50.958;10.994;2024-02-23T11:28:42;96621.09;;;7.38;87.91
29907;BME280;16776;50.958;10.994;2024-02-23T11:31:12;96625.25;;;7.40;88.37
29907;BME280;16776;50.958;10.994;2024-02-23T11:33:40;96622.34;;;7.48;86.79
29907;BME280;16776;50.958;10.994;2024-02-23T11:36:07;96620.69;;;7.47;86.39
29907;BME280;16776;50.958;10.994;2024-02-23T11:38:34;96625.94;;;7.44;86.80
29907;BME280;16776;50.958;10.994;2024-02-23T11:41:02;96625.94;;;7.44;87.89
29907;BME280;16776;50.958;10.994;2024-02-23T11:43:29;96631.09;;;7.42;86.86
29907;BME280;16776;50.958;10.994;2024-02-23T11:45:55;96627.03;;;7.38;86.57
29907;BME280;16776;50.958;10.994;2024-02-23T11:48:22;96642.41;;;7.38;87.52
29907;BME280;16776;50.958;10.994;2024-02-23T11:50:50;96628.72;;;7.39;86.04
29907;BME280;16776;50.958;10.994;2024-02-23T11:53:17;96619.47;;;7.35;86.61
29907;BME280;16776;50.958;10.994;2024-02-23T11:55:45;96623.88;;;7.33;86.29
29907;BME280;16776;50.958;10.994;2024-02-23T11:58:13;96620.59;;;7.30;86.13
29907;BME280;16776;50.958;10.994;2024-02-23T12:00:40;96622.31;;;7.29;86.48
29907;BME280;16776;50.958;10.994;2024-02-23T12:03:06;96621.53;;;7.29;86.44
29907;BME280;16776;50.958;10.994;2024-02-23T12:05:33;96620.69;;;7.28;86.43
29907;BME280;16776;50.958;10.994;2024-02-23T12:08:02;96630.84;;;7.30;85.10
29907;BME280;16776;50.958;10.994;2024-02-23T12:10:28;96617.44;;;7.25;85.37
29907;BME280;16776;50.958;10.994;2024-02-23T12:12:55;96609.06;;;7.21;85.82
29907;BME280;16776;50.958;10.994;2024-02-23T12:15:22;96612.66;;;7.17;85.68
29907;BME280;16776;50.958;10.994;2024-02-23T12:17:49;96612.81;;;7.14;86.08
29907;BME280;16776;50.958;10.994;2024-02-23T12:20:16;96610.97;;;7.16;86.55
29907;BME280;16776;50.958;10.994;2024-02-23T12:22:42;96611.91;;;7.15;85.28
29907;BME280;16776;50.958;10.994;2024-02-23T12:25:11;96616.09;;;7.16;85.54
29907;BME280;16776;50.958;10.994;2024-02-23T12:27:38;96623.16;;;7.11;85.29
29907;BME280;16776;50.958;10.994;2024-02-23T12:30:06;96613.91;;;7.09;84.33
29907;BME280;16776;50.958;10.994;2024-02-23T12:32:34;96618.31;;;7.05;84.46
29907;BME280;16776;50.958;10.994;2024-02-23T12:35:00;96611.69;;;7.01;84.70
29907;BME280;16776;50.958;10.994;2024-02-23T12:37:27;96615.13;;;7.00;84.47
29907;BME280;16776;50.958;10.994;2024-02-23T12:39:53;96613.63;;;6.96;84.22
29907;BME280;16776;50.958;10.994;2024-02-23T12:42:21;96604.22;;;6.96;85.58
29907;BME280;16776;50.958;10.994;2024-02-23T12:44:48;96613.81;;;6.91;85.34
29907;BME280;16776;50.958;10.994;2024-02-23T12:47:14;96607.94;;;6.89;85.62
29907;BME280;16776;50.958;10.994;2024-02-23T12:49:41;96603.78;;;6.87;85.93
29907;BME280;16776;50.958;10.994;2024-02-23T12:52:08;96602.88;;;6.88;84.90
29907;BME280;16776;50.958;10.994;2024-02-23T12:54:35;96605.38;;;6.89;84.99
29907;BME280;16776;50.958;10.994;2024-02-23T12:57:01;96603.72;;;6.88;84.62
29907;BME280;16776;50.958;10.994;2024-02-23T12:59:29;96609.78;;;6.86;85.46